createdAt,value
2023-05-21T00:00:51.579Z,14.32
2023-05-21T00:03:18.635Z,14.38
2023-05-21T00:05:47.315Z,14.41
2023-05-21T00:08:14.221Z,14.41
2023-05-21T00:10:41.110Z,14.39
2023-05-21T00:13:09.106Z,14.37
2023-05-21T00:15:36.467Z,14.26
2023-05-21T00:18:03.850Z,14.30
2023-05-21T00:20:32.376Z,14.29
2023-05-21T00:22:59.804Z,14.26
2023-05-21T00:25:26.470Z,14.25
2023-05-21T00:27:54.411Z,14.26
2023-05-21T00:30:21.326Z,14.27
2023-05-21T00:32:48.115Z,14.27
2023-05-21T00:35:14.825Z,14.25
2023-05-21T00:37:41.435Z,14.21
2023-05-21T00:40:09.285Z,14.22
2023-05-21T00:42:40.603Z,14.23
2023-05-21T00:45:07.910Z,14.24
2023-05-21T00:47:35.822Z,14.21
2023-05-21T00:50:04.016Z,14.16
2023-05-21T00:52:31.085Z,14.21
2023-05-21T00:54:58.054Z,14.23
2023-05-21T00:57:27.336Z,14.25
2023-05-21T00:59:54.180Z,14.23
2023-05-21T01:02:24.329Z,14.22
2023-05-21T01:04:54.158Z,14.17
2023-05-21T01:07:20.855Z,14.18
2023-05-21T01:09:48.129Z,14.07
2023-05-21T01:12:15.344Z,14.11
2023-05-21T01:14:42.561Z,14.08
2023-05-21T01:17:10.621Z,14.11
2023-05-21T01:19:37.590Z,14.11
2023-05-21T01:22:06.540Z,14.03
2023-05-21T01:24:33.632Z,14.03
2023-05-21T01:27:02.275Z,14.05
2023-05-21T01:29:29.039Z,14.03
2023-05-21T01:32:16.256Z,14.03
2023-05-21T01:34:59.919Z,14.03
2023-05-21T01:37:57.644Z,14.03
2023-05-21T01:40:40.926Z,14.05
2023-05-21T01:43:08.334Z,14.00
2023-05-21T01:45:39.574Z,13.96
2023-05-21T01:48:08.264Z,13.91
2023-05-21T01:50:37.450Z,13.91
2023-05-21T01:53:05.871Z,13.93
2023-05-21T01:55:33.497Z,13.95
2023-05-21T01:58:02.382Z,13.93
2023-05-21T02:00:29.682Z,13.89
2023-05-21T02:02:56.700Z,13.91
2023-05-21T02:05:23.478Z,13.96
2023-05-21T02:07:52.142Z,13.92
2023-05-21T02:10:19.188Z,13.94
2023-05-21T02:12:46.130Z,13.92
2023-05-21T02:15:14.468Z,13.92
2023-05-21T02:17:42.619Z,13.90
2023-05-21T02:20:12.659Z,13.87
2023-05-21T02:22:43.402Z,13.82
2023-05-21T02:25:11.546Z,13.83
2023-05-21T02:27:39.689Z,13.83
2023-05-21T02:30:08.672Z,13.79
2023-05-21T02:32:36.325Z,13.78
2023-05-21T02:35:04.215Z,13.77
2023-05-21T02:37:34.698Z,13.79
2023-05-21T02:40:04.059Z,13.79
2023-05-21T02:42:30.824Z,13.63
2023-05-21T02:44:57.615Z,13.70
2023-05-21T02:47:25.510Z,13.68
2023-05-21T02:49:53.212Z,13.67
2023-05-21T02:52:24.017Z,13.70
2023-05-21T02:54:51.530Z,13.70
2023-05-21T02:57:18.425Z,13.64
2023-05-21T02:59:46.036Z,13.63
2023-05-21T03:02:12.854Z,13.63
2023-05-21T03:04:46.271Z,13.59
2023-05-21T03:07:14.223Z,13.57
2023-05-21T03:09:44.656Z,13.60
2023-05-21T03:12:11.592Z,13.61
2023-05-21T03:14:38.658Z,13.63
2023-05-21T03:17:08.257Z,13.61
2023-05-21T03:19:36.517Z,13.54
2023-05-21T03:22:06.700Z,13.46
2023-05-21T03:24:33.627Z,13.41
2023-05-21T03:27:03.606Z,13.46
2023-05-21T03:29:30.614Z,13.45
2023-05-21T03:31:57.858Z,13.44
2023-05-21T03:34:24.706Z,13.43
2023-05-21T03:36:51.307Z,13.37
2023-05-21T03:39:18.177Z,13.34
2023-05-21T03:41:45.149Z,13.33
2023-05-21T03:44:11.784Z,13.30
2023-05-21T03:46:38.496Z,13.28
2023-05-21T03:49:05.229Z,13.28
2023-05-21T03:51:31.988Z,13.26
2023-05-21T03:54:01.775Z,13.21
2023-05-21T03:56:28.457Z,13.22
2023-05-21T03:58:55.138Z,13.22
2023-05-21T04:01:22.106Z,13.15
2023-05-21T04:03:49.005Z,13.19
2023-05-21T04:06:16.019Z,13.18
2023-05-21T04:08:42.754Z,13.19
2023-05-21T04:11:09.422Z,13.18
2023-05-21T04:13:36.334Z,13.21
2023-05-21T04:16:03.051Z,13.21
2023-05-21T04:18:29.819Z,13.24
2023-05-21T04:20:56.494Z,13.21
2023-05-21T04:23:23.710Z,13.22
2023-05-21T04:25:51.006Z,13.19
2023-05-21T04:28:21.092Z,13.24
2023-05-21T04:30:48.282Z,13.27
2023-05-21T04:33:18.507Z,13.26
2023-05-21T04:35:47.496Z,13.30
2023-05-21T04:38:20.090Z,13.31
2023-05-21T04:40:50.996Z,13.34
2023-05-21T04:43:17.882Z,13.37
2023-05-21T04:45:45.195Z,13.42
2023-05-21T04:48:12.716Z,13.45
2023-05-21T04:50:41.647Z,13.44
2023-05-21T04:53:08.449Z,13.48
2023-05-21T04:55:39.705Z,13.51
2023-05-21T04:58:07.312Z,13.54
2023-05-21T05:00:34.561Z,13.56
2023-05-21T05:03:01.321Z,13.53
2023-05-21T05:05:27.986Z,13.56
2023-05-21T05:07:54.649Z,13.53
2023-05-21T05:10:21.263Z,13.61
2023-05-21T05:12:48.651Z,13.66
2023-05-21T05:15:16.095Z,13.70
2023-05-21T05:17:42.765Z,13.75
2023-05-21T05:20:11.164Z,13.82
2023-05-21T05:22:37.947Z,13.87
2023-05-21T05:25:05.009Z,13.92
2023-05-21T05:27:31.615Z,14.00
2023-05-21T05:29:58.269Z,14.03
2023-05-21T05:32:24.923Z,14.05
2023-05-21T05:34:51.552Z,14.11
2023-05-21T05:37:18.207Z,14.16
2023-05-21T05:39:44.802Z,14.19
2023-05-21T05:42:11.422Z,14.22
2023-05-21T05:44:38.194Z,14.20
2023-05-21T05:47:09.190Z,14.26
2023-05-21T05:49:36.421Z,14.21
2023-05-21T05:52:03.483Z,14.25
2023-05-21T05:54:30.168Z,14.26
2023-05-21T05:56:56.811Z,14.34
2023-05-21T05:59:23.513Z,14.39
2023-05-21T06:01:50.192Z,14.40
2023-05-21T06:04:16.961Z,14.47
2023-05-21T06:06:43.633Z,14.54
2023-05-21T06:09:10.273Z,14.56
2023-05-21T06:11:36.894Z,14.62
2023-05-21T06:14:03.844Z,14.67
2023-05-21T06:16:33.959Z,14.70
2023-05-21T06:19:01.184Z,14.74
2023-05-21T06:21:27.941Z,14.86
2023-05-21T06:23:54.688Z,14.92
2023-05-21T06:26:22.012Z,15.07
2023-05-21T06:28:49.554Z,15.16
2023-05-21T06:31:16.409Z,15.21
2023-05-21T06:33:43.375Z,15.27
2023-05-21T06:36:10.130Z,15.63
2023-05-21T06:38:36.789Z,15.96
2023-05-21T06:41:04.205Z,16.38
2023-05-21T06:43:30.881Z,16.56
2023-05-21T06:45:57.784Z,16.86
2023-05-21T06:48:24.396Z,17.10
2023-05-21T06:50:51.442Z,17.50
2023-05-21T06:53:18.242Z,17.77
2023-05-21T06:55:45.031Z,18.06
2023-05-21T06:58:12.687Z,18.30
2023-05-21T07:00:39.351Z,18.38
2023-05-21T07:03:06.215Z,18.48
2023-05-21T07:05:33.161Z,18.82
2023-05-21T07:08:00.793Z,19.28
2023-05-21T07:10:27.463Z,19.52
2023-05-21T07:12:54.169Z,19.33
2023-05-21T07:15:21.325Z,19.46
2023-05-21T07:17:48.991Z,19.66
2023-05-21T07:20:15.998Z,19.73
2023-05-21T07:22:44.479Z,19.63
2023-05-21T07:25:11.729Z,20.00
2023-05-21T07:27:38.402Z,20.31
2023-05-21T07:30:05.687Z,20.46
2023-05-21T07:32:32.400Z,20.21
2023-05-21T07:35:02.083Z,20.11
2023-05-21T07:37:28.809Z,20.39
2023-05-21T07:39:58.780Z,20.44
2023-05-21T07:42:26.175Z,20.56
2023-05-21T07:44:52.823Z,20.12
2023-05-21T07:47:19.427Z,20.17
2023-05-21T07:49:46.135Z,20.08
2023-05-21T07:52:12.733Z,20.40
2023-05-21T07:54:39.388Z,20.61
2023-05-21T07:57:06.292Z,20.72
2023-05-21T07:59:33.698Z,20.37
2023-05-21T08:02:00.343Z,20.45
2023-05-21T08:04:27.380Z,20.45
2023-05-21T08:06:54.141Z,20.35
2023-05-21T08:09:20.739Z,20.34
2023-05-21T08:11:47.390Z,20.13
2023-05-21T08:14:14.088Z,20.22
2023-05-21T08:16:41.616Z,20.15
2023-05-21T08:19:08.407Z,20.54
2023-05-21T08:21:35.200Z,21.04
2023-05-21T08:24:02.764Z,21.42
2023-05-21T08:26:29.428Z,21.29
2023-05-21T08:28:56.248Z,21.29
2023-05-21T08:31:22.942Z,21.40
2023-05-21T08:33:53.543Z,21.36
2023-05-21T08:36:20.288Z,21.36
2023-05-21T08:38:46.930Z,21.70
2023-05-21T08:41:14.156Z,21.66
2023-05-21T08:43:41.389Z,21.70
2023-05-21T08:46:09.969Z,22.03
2023-05-21T08:48:37.314Z,21.87
2023-05-21T08:51:04.588Z,22.57
2023-05-21T08:53:33.306Z,22.99
2023-05-21T08:56:00.200Z,23.01
2023-05-21T08:58:26.849Z,23.36
2023-05-21T09:00:55.063Z,23.14
2023-05-21T09:03:22.559Z,23.48
2023-05-21T09:05:49.951Z,23.36
2023-05-21T09:08:24.847Z,23.23
2023-05-21T09:10:52.560Z,22.77
2023-05-21T09:13:20.489Z,22.81
2023-05-21T09:15:47.992Z,22.59
2023-05-21T09:18:15.228Z,22.69
2023-05-21T09:20:42.166Z,23.18
2023-05-21T09:23:16.733Z,23.75
2023-05-21T09:25:48.854Z,23.72
2023-05-21T09:28:16.841Z,23.61
2023-05-21T09:30:48.248Z,24.28
2023-05-21T09:33:30.044Z,24.16
2023-05-21T09:35:56.790Z,24.31
2023-05-21T09:38:25.041Z,24.92
2023-05-21T09:40:54.691Z,25.33
2023-05-21T09:43:21.773Z,24.58
2023-05-21T09:45:56.568Z,25.49
2023-05-21T09:48:41.000Z,26.37
2023-05-21T09:51:18.446Z,-147.77
2023-05-21T09:53:58.017Z,-147.77
2023-05-21T09:56:32.546Z,-147.77
2023-05-21T09:59:06.818Z,25.00
2023-05-21T10:01:34.439Z,24.83
2023-05-21T10:04:02.800Z,25.75
2023-05-21T10:06:32.291Z,26.03
2023-05-21T10:09:04.639Z,26.07
2023-05-21T10:11:33.690Z,26.47
2023-05-21T10:14:09.696Z,26.43
2023-05-21T10:16:37.594Z,26.49
2023-05-21T10:19:06.020Z,26.87
2023-05-21T10:21:33.623Z,-147.77
2023-05-21T10:24:02.086Z,-147.77
2023-05-21T10:26:30.033Z,-147.77
2023-05-21T10:29:00.391Z,-147.77
2023-05-21T10:31:27.694Z,-147.77
2023-05-21T10:33:55.534Z,-147.77
2023-05-21T10:36:24.175Z,-147.77
2023-05-21T10:38:51.251Z,-147.77
2023-05-21T10:41:20.213Z,-147.77
2023-05-21T10:44:03.829Z,-147.77
2023-05-21T10:46:56.573Z,-147.77
2023-05-21T10:50:11.448Z,-147.77
2023-05-21T10:52:50.298Z,-147.77
2023-05-21T10:55:35.192Z,-147.77
2023-05-21T10:58:46.512Z,-147.77
2023-05-21T11:01:15.448Z,-147.77
2023-05-21T11:03:44.635Z,-147.77
2023-05-21T11:06:11.709Z,-147.77
2023-05-21T11:08:39.012Z,-147.77
2023-05-21T11:11:05.959Z,-147.77
2023-05-21T11:13:52.023Z,-147.77
2023-05-21T11:16:18.719Z,-147.77
2023-05-21T11:18:46.017Z,-147.77
2023-05-21T11:21:15.530Z,-147.77
2023-05-21T11:23:51.633Z,-147.77
2023-05-21T11:26:23.897Z,-147.77
2023-05-21T11:29:11.320Z,-147.77
2023-05-21T11:31:38.714Z,-147.77
2023-05-21T11:34:19.299Z,-147.77
2023-05-21T11:36:49.922Z,-147.77
2023-05-21T11:39:22.130Z,-147.77
2023-05-21T11:42:00.474Z,-147.77
2023-05-21T11:44:44.622Z,-147.77
2023-05-21T11:47:15.128Z,-147.77
2023-05-21T11:49:42.435Z,-147.77
2023-05-21T11:52:10.261Z,-147.77
2023-05-21T11:54:44.067Z,-147.77
2023-05-21T11:57:11.117Z,-147.77
2023-05-21T11:59:38.112Z,-147.77
2023-05-21T12:02:05.360Z,-147.77
2023-05-21T12:04:36.565Z,-147.77
2023-05-21T12:07:11.375Z,-147.77
2023-05-21T12:09:49.441Z,-147.77
2023-05-21T12:12:18.387Z,-147.77
2023-05-21T12:14:51.052Z,-147.77
2023-05-21T12:17:25.785Z,-147.77
2023-05-21T12:19:54.685Z,-147.77
2023-05-21T12:22:21.758Z,-147.77
2023-05-21T12:24:50.468Z,-147.77
2023-05-21T12:27:18.491Z,-147.77
2023-05-21T12:29:47.072Z,-147.77
2023-05-21T12:32:15.884Z,-147.77
2023-05-21T12:34:47.773Z,-147.77
2023-05-21T12:37:22.333Z,-147.77
2023-05-21T12:39:53.870Z,-147.77
2023-05-21T12:42:41.859Z,-147.77
2023-05-21T12:45:11.119Z,-147.77
2023-05-21T12:47:38.018Z,-147.77
2023-05-21T12:50:09.557Z,-147.77
2023-05-21T12:52:36.590Z,-147.77
2023-05-21T12:55:04.659Z,-147.77
2023-05-21T12:57:39.351Z,-147.77
2023-05-21T13:00:07.906Z,-147.77
2023-05-21T13:02:39.797Z,-147.77
2023-05-21T13:05:17.846Z,-147.77
2023-05-21T13:07:46.920Z,-147.77
2023-05-21T13:10:16.803Z,-147.77
2023-05-21T13:12:45.497Z,-147.77
2023-05-21T13:15:12.280Z,-147.77
2023-05-21T13:17:39.005Z,-147.77
2023-05-21T13:20:20.571Z,-147.77
2023-05-21T13:22:49.250Z,-147.77
2023-05-21T13:25:18.310Z,-147.77
2023-05-21T13:27:45.366Z,-147.77
2023-05-21T13:30:12.602Z,-147.77
2023-05-21T13:32:40.613Z,-147.77
2023-05-21T13:35:07.935Z,-147.77
2023-05-21T13:37:38.555Z,-147.77
2023-05-21T13:40:07.254Z,-147.77
2023-05-21T13:42:35.458Z,-147.77
2023-05-21T13:45:02.275Z,-147.77
2023-05-21T13:47:29.068Z,-147.77
2023-05-21T13:49:55.831Z,-147.77
2023-05-21T13:52:22.496Z,-147.77
2023-05-21T13:54:49.178Z,-147.77
2023-05-21T13:57:16.026Z,-147.77
2023-05-21T13:59:43.051Z,-147.77
2023-05-21T14:02:10.689Z,-147.77
2023-05-21T14:04:39.238Z,-147.77
2023-05-21T14:07:07.084Z,-147.77
2023-05-21T14:09:34.361Z,-147.77
2023-05-21T14:12:01.686Z,-147.77
2023-05-21T14:14:28.420Z,-147.77
2023-05-21T14:16:55.145Z,-147.77
2023-05-21T14:19:22.003Z,-147.77
2023-05-21T14:21:48.780Z,-147.77
2023-05-21T14:24:15.439Z,-147.77
2023-05-21T14:26:42.266Z,-147.77
2023-05-21T14:29:09.382Z,-147.77
2023-05-21T14:31:36.384Z,-147.77
2023-05-21T14:34:03.152Z,-147.77
2023-05-21T14:36:31.116Z,-147.77
2023-05-21T14:38:57.947Z,-147.77
2023-05-21T14:41:26.683Z,-147.77
2023-05-21T14:43:53.659Z,-147.77
2023-05-21T14:46:20.416Z,-147.77
2023-05-21T14:48:47.150Z,-147.77
2023-05-21T14:51:14.365Z,-147.77
2023-05-21T14:53:41.188Z,-147.77
2023-05-21T14:56:08.492Z,-147.77
2023-05-21T14:58:35.138Z,-147.77
2023-05-21T15:01:04.184Z,-147.77
2023-05-21T15:03:31.281Z,-147.77
2023-05-21T15:05:58.606Z,-147.77
2023-05-21T15:08:25.445Z,-147.77
2023-05-21T15:10:52.526Z,-147.77
2023-05-21T15:13:19.214Z,-147.77
2023-05-21T15:15:46.103Z,-147.77
2023-05-21T15:18:12.914Z,-147.77
2023-05-21T15:20:39.578Z,-147.77
2023-05-21T15:23:15.917Z,-147.77
2023-05-21T15:25:43.230Z,-147.77
2023-05-21T15:28:10.287Z,-147.77
2023-05-21T15:30:36.924Z,-147.77
2023-05-21T15:33:03.642Z,-147.77
2023-05-21T15:35:30.408Z,-147.77
2023-05-21T15:37:57.146Z,-147.77
2023-05-21T15:40:26.146Z,-147.77
2023-05-21T15:42:53.652Z,-147.77
2023-05-21T15:45:20.443Z,-147.77
2023-05-21T15:47:47.244Z,-147.77
2023-05-21T15:50:14.032Z,-147.77
2023-05-21T15:52:42.076Z,-147.77
2023-05-21T15:55:09.582Z,-147.77
2023-05-21T15:57:36.176Z,-147.77
2023-05-21T16:00:03.829Z,-147.77
2023-05-21T16:02:30.704Z,-147.77
2023-05-21T16:04:57.410Z,-147.77
2023-05-21T16:07:24.675Z,-147.77
2023-05-21T16:09:51.374Z,25.50
2023-05-21T16:12:18.155Z,25.26
2023-05-21T16:14:45.046Z,25.34
2023-05-21T16:17:11.852Z,25.36
2023-05-21T16:19:39.063Z,25.28
2023-05-21T16:22:05.916Z,25.10
2023-05-21T16:24:32.927Z,25.18
2023-05-21T16:26:59.614Z,25.12
2023-05-21T16:29:26.225Z,24.89
2023-05-21T16:31:52.964Z,24.80
2023-05-21T16:34:19.570Z,24.72
2023-05-21T16:36:46.427Z,24.58
2023-05-21T16:39:13.430Z,24.54
2023-05-21T16:41:40.079Z,24.61
2023-05-21T16:44:06.677Z,24.68
2023-05-21T16:46:33.467Z,24.68
2023-05-21T16:49:00.166Z,24.74
2023-05-21T16:51:26.743Z,24.74
2023-05-21T16:53:53.417Z,24.85
2023-05-21T16:56:20.029Z,24.88
2023-05-21T16:58:46.630Z,24.79
2023-05-21T17:01:13.336Z,24.80
2023-05-21T17:03:42.496Z,24.80
2023-05-21T17:06:10.348Z,24.80
2023-05-21T17:08:37.021Z,24.76
2023-05-21T17:11:03.693Z,24.70
2023-05-21T17:13:30.293Z,24.65
2023-05-21T17:15:56.967Z,24.60
2023-05-21T17:18:23.611Z,24.51
2023-05-21T17:20:50.606Z,24.41
2023-05-21T17:23:17.584Z,24.35
2023-05-21T17:25:44.298Z,24.27
2023-05-21T17:28:11.292Z,24.11
2023-05-21T17:30:38.001Z,24.01
2023-05-21T17:33:04.781Z,23.98
2023-05-21T17:35:31.432Z,23.93
2023-05-21T17:37:58.238Z,23.84
2023-05-21T17:40:25.302Z,23.74
2023-05-21T17:42:53.288Z,23.61
2023-05-21T17:45:20.345Z,23.51
2023-05-21T17:47:47.016Z,23.45
2023-05-21T17:50:13.705Z,23.39
2023-05-21T17:52:40.385Z,23.34
2023-05-21T17:55:07.934Z,23.22
2023-05-21T17:57:35.962Z,23.15
2023-05-21T18:00:04.976Z,23.07
2023-05-21T18:02:31.752Z,23.05
2023-05-21T18:04:58.614Z,22.99
2023-05-21T18:07:25.657Z,22.94
2023-05-21T18:09:52.437Z,22.82
2023-05-21T18:12:19.063Z,22.75
2023-05-21T18:14:45.975Z,22.64
2023-05-21T18:17:13.054Z,22.55
2023-05-21T18:19:39.669Z,22.47
2023-05-21T18:22:06.612Z,22.40
2023-05-21T18:24:33.332Z,22.28
2023-05-21T18:27:00.008Z,22.18
2023-05-21T18:29:26.743Z,22.11
2023-05-21T18:31:53.738Z,22.05
2023-05-21T18:34:20.460Z,22.01
2023-05-21T18:39:15.128Z,21.83
2023-05-21T18:41:42.529Z,21.71
2023-05-21T18:44:09.265Z,21.60
2023-05-21T18:46:36.261Z,21.49
2023-05-21T18:49:03.020Z,21.40
2023-05-21T18:51:29.687Z,21.20
2023-05-21T18:53:56.262Z,21.13
2023-05-21T18:56:22.901Z,21.03
2023-05-21T18:58:49.635Z,20.93
2023-05-21T19:01:16.437Z,20.87
2023-05-21T19:03:43.294Z,20.80
2023-05-21T19:06:10.030Z,20.69
2023-05-21T19:08:36.766Z,20.63
2023-05-21T19:11:03.849Z,20.50
2023-05-21T19:13:30.503Z,20.42
2023-05-21T19:15:58.655Z,20.36
2023-05-21T19:18:30.437Z,20.27
2023-05-21T19:20:57.540Z,20.22
2023-05-21T19:23:24.902Z,20.15
2023-05-21T19:25:51.848Z,20.06
2023-05-21T19:28:18.923Z,20.00
2023-05-21T19:30:46.374Z,19.92
2023-05-21T19:33:13.648Z,19.84
2023-05-21T19:35:41.913Z,19.74
2023-05-21T19:38:10.991Z,19.60
2023-05-21T19:40:38.318Z,19.23
2023-05-21T19:43:05.697Z,19.29
2023-05-21T19:45:32.553Z,19.21
2023-05-21T19:47:59.930Z,19.16
2023-05-21T19:50:29.055Z,18.93
2023-05-21T19:52:57.264Z,18.85
2023-05-21T19:55:24.933Z,18.84
2023-05-21T19:57:51.827Z,18.86
2023-05-21T20:00:18.966Z,18.74
2023-05-21T20:02:46.266Z,18.73
2023-05-21T20:05:13.247Z,18.67
2023-05-21T20:07:40.008Z,18.62
2023-05-21T20:10:07.504Z,18.65
2023-05-21T20:12:34.261Z,18.54
2023-05-21T20:15:01.225Z,18.53
2023-05-21T20:17:28.764Z,18.47
2023-05-21T20:19:57.291Z,18.55
2023-05-21T20:22:24.045Z,18.52
2023-05-21T20:24:50.755Z,18.48
2023-05-21T20:27:19.474Z,18.47
2023-05-21T20:29:46.306Z,18.49
2023-05-21T20:32:13.330Z,18.51
2023-05-21T20:34:54.233Z,18.43
2023-05-21T20:37:28.323Z,18.30
2023-05-21T20:39:57.856Z,18.25
2023-05-21T20:42:30.777Z,18.10
2023-05-21T20:45:00.260Z,17.95
2023-05-21T20:47:29.938Z,17.97
2023-05-21T20:49:57.881Z,18.08
2023-05-21T20:52:24.992Z,18.04
2023-05-21T20:54:54.780Z,18.08
2023-05-21T20:57:26.218Z,18.09
2023-05-21T20:59:53.520Z,18.08
2023-05-21T21:02:21.206Z,18.04
2023-05-21T21:04:49.144Z,18.02
2023-05-21T21:07:18.172Z,18.03
2023-05-21T21:09:45.825Z,18.02
2023-05-21T21:12:24.611Z,17.94
2023-05-21T21:14:52.365Z,17.87
2023-05-21T21:17:19.005Z,17.82
2023-05-21T21:19:45.736Z,17.76
2023-05-21T21:22:12.373Z,17.76
2023-05-21T21:24:39.003Z,17.58
2023-05-21T21:27:06.011Z,17.63
2023-05-21T21:29:32.719Z,17.65
2023-05-21T21:31:59.452Z,17.67
2023-05-21T21:34:26.095Z,17.57
2023-05-21T21:36:54.258Z,17.49
2023-05-21T21:39:21.012Z,17.53
2023-05-21T21:41:47.651Z,17.49
2023-05-21T21:44:14.297Z,17.54
2023-05-21T21:46:41.036Z,17.42
2023-05-21T21:49:07.700Z,17.41
2023-05-21T21:51:34.884Z,17.41
2023-05-21T21:54:01.595Z,17.31
2023-05-21T21:56:29.244Z,17.28
2023-05-21T21:58:55.880Z,17.29
2023-05-21T22:01:22.950Z,17.28
2023-05-21T22:03:49.832Z,17.17
2023-05-21T22:06:16.448Z,17.11
2023-05-21T22:08:43.148Z,17.09
2023-05-21T22:11:10.091Z,17.08
2023-05-21T22:13:36.723Z,17.07
2023-05-21T22:16:05.435Z,16.97
2023-05-21T22:18:39.529Z,16.92
2023-05-21T22:21:14.400Z,16.87
2023-05-21T22:23:41.292Z,16.89
2023-05-21T22:26:08.905Z,16.79
2023-05-21T22:28:35.824Z,16.66
2023-05-21T22:31:02.602Z,16.68
2023-05-21T22:33:29.565Z,16.61
2023-05-21T22:35:57.022Z,16.63
2023-05-21T22:38:24.241Z,16.57
2023-05-21T22:40:50.937Z,16.61
2023-05-21T22:43:17.674Z,16.56
2023-05-21T22:45:44.364Z,16.55
2023-05-21T22:48:11.100Z,16.51
2023-05-21T22:50:38.767Z,16.51
2023-05-21T22:53:06.774Z,16.39
2023-05-21T22:55:33.460Z,16.36
2023-05-21T22:58:00.143Z,16.34
2023-05-21T23:00:27.228Z,16.33
2023-05-21T23:02:54.805Z,16.32
2023-05-21T23:05:22.120Z,16.32
2023-05-21T23:07:49.007Z,16.25
2023-05-21T23:10:15.726Z,16.24
2023-05-21T23:12:42.426Z,16.22
2023-05-21T23:15:10.084Z,16.19
2023-05-21T23:17:37.935Z,16.16
2023-05-21T23:20:06.162Z,16.11
2023-05-21T23:22:32.834Z,16.11
2023-05-21T23:24:59.592Z,16.09
2023-05-21T23:27:26.206Z,16.02
2023-05-21T23:29:52.821Z,15.97
2023-05-21T23:32:19.559Z,15.91
2023-05-21T23:34:46.422Z,15.86
2023-05-21T23:37:13.134Z,15.83
2023-05-21T23:39:39.907Z,15.80
2023-05-21T23:42:06.829Z,15.74
2023-05-21T23:44:33.489Z,15.73
2023-05-21T23:47:00.061Z,15.75
2023-05-21T23:49:26.721Z,15.79
2023-05-21T23:51:53.672Z,15.71
2023-05-21T23:54:20.373Z,15.71
2023-05-21T23:56:46.996Z,15.70
2023-05-21T23:59:15.029Z,15.70
